AirNav   Everest Fuels
 
 799 users online  

6FD8 Broward Health Medical Center Heliport
Fort Lauderdale, Florida, USA

GOING TO FORT LAUDERDALE?


FAA INFORMATION EFFECTIVE 07 NOVEMBER 2019

Location

FAA Identifier: 6FD8
Lat/Long: 26-06-14.3120N 080-08-29.1630W
26-06.238533N 080-08.486050W
26.1039756,-80.1414342
(estimated)
Elevation: 27 ft. / 8 m (estimated)
Variation: 03W (1985)
Time zone: UTC -5 (UTC -4 during Daylight Saving Time)
Zip code: 33316

Heliport Operations

Heliport use: Private use, MEDICAL
Activation date: 03/1988
Control tower: no
ARTCC: MIAMI CENTER
FSS: MIAMI FLIGHT SERVICE STATION
Attendance: UNATNDD
Wind indicator: yes
Segmented circle: no

Heliport Communications

WX ASOS at FLL (2.0 nm S): PHONE 954-359-7857
WX ASOS at FXE (6 nm N): PHONE 954-772-2537
WX ASOS at HWO (8 nm SW): PHONE 954-983-5904
WX ASOS at PMP (9 nm N): PHONE 954-783-3720
WX ASOS at OPF (14 nm SW): 125.9 (305-681-4063)
WX AWOS-3 at BCT (17 nm N): 121.125 (561-391-2696)

Nearby radio navigation aids

VOR radial/distance  VOR name  Freq  Var
FLLr043/2.3FORT LAUDERDALE VOR/DME114.4006W
VKZr006/21.1VIRGINIA KEY VOR/DME117.1004W
DHPr036/21.4DOLPHIN VORTAC113.9004W
PBIr188/34.7PALM BEACH VORTAC115.7003W

Heliport Services

Runway Information

Helipad H1

Dimensions: 60 x 60 ft. / 18 x 18 m
Surface: concrete
Latitude: 26-06.238533N
Longitude: 080-08.486050W
Elevation: 27.0 ft.
Traffic pattern: leftleft

Heliport Ownership and Management from official FAA records

Ownership: Publicly-owned
Owner: BROWARD HEALTH MEDICAL CENTER
1600 S. ANDREWS AVE
FT LAUDERDALE, FL 33316
Phone 954-355-4400
Manager: DIANA DOMINGUEZ
1600 S. ANDREWS AVE
FT LAUDERDALE, FL 33316
Phone 954-355-5770

Additional Remarks

FOR CD CTC MIAMI APCH AT 305-869-5432.

Instrument Procedures

There are no published instrument procedures at 6FD8.

Some nearby airports with instrument procedures:

KFLL - Fort Lauderdale/Hollywood International Airport (2 nm S)
KFXE - Fort Lauderdale Executive Airport (6 nm N)
KHWO - North Perry Airport (8 nm SW)
KPMP - Pompano Beach Airpark (9 nm N)
KOPF - Miami-Opa Locka Executive Airport (14 nm SW)
KBCT - Boca Raton Airport (17 nm N)
 
Loc | Ops | Rwys | IFR | FBO | Links
Com | Nav | Svcs | Stats | Notes

Reliance Aviation
AirBoss

 
Area around 6FD8 (Broward Health Medical Center Heliport)
 
Road maps at: MapQuest Bing Google
 
Aerial photo
No photo
 
Sectional chart

 
Airport distance calculator
Flying to Broward Health Medical Center Heliport? Find the distance to fly.

From to 6FD8

Sunrise and sunset
Times for 20-Nov-2019
 Local
(UTC-5)
 Zulu
(UTC)
Morning civil twilight06:1911:19
Sunrise06:4411:44
Sunset17:2922:29
Evening civil twilight17:5322:53

Current date and time
Zulu (UTC)  20-Nov-2019 11:59:38
Local (UTC-5)  20-Nov-2019 06:59:38
 
METAR
KFLL 
2nm S 
201053Z 33006KT 10SM CLR 14/11 A3006 RMK AO2 SLP178 T01390106 $
KFXE 
6nm N 
201153Z 32005KT 10SM CLR 13/09 A3009 RMK AO2 SLP190 T01330089 10161 20122 53016 $
KHWO 
8nm SW 
201153Z 33005KT 10SM CLR 13/11 A3010 RMK AO2 SLP193 T01330106 10167 20133 53016
KPMP 
9nm N 
201153Z 32008KT 10SM FEW250 14/08 A3008 RMK AO2 SLP188 T01390078 10161 20133 53015
KOPF 
14nm SW 
201153Z 33007KT 10SM CLR 14/12 A3009 RMK AO2 SLP191 T01440122 10172 20144 53015
KBCT 
17nm N 
201153Z 34006KT 10SM CLR 13/08 A3009
TAF
KFLL 
2nm S 
200913Z 2009/2112 33005KT P6SM FEW040 FM201400 35010KT P6SM SKC FM210200 01006KT P6SM FEW040
KFXE 
6nm N 
200913Z 2009/2106 VRB04KT P6SM FEW040 FM201400 35008KT P6SM SKC FM210200 VRB04KT P6SM FEW040
KOPF 
14nm SW 
200913Z 2009/2106 33006KT P6SM FEW040 FM201400 35009KT P6SM SKC FM210200 VRB04KT P6SM FEW030
NOTAMs
Click for the latest NOTAMs
NOTAMs are issued by the DoD/FAA and will open in a separate window not controlled by AirNav.

 

 
 

Would you like to see your business listed on this page?

 If your business provides an interesting product or service to pilots, flight crews, aircraft, or users of the Broward Health Medical Center Heliport, you should consider listing it here.  To start the listing process, click on the button below
 
Add a business
 

Other Pages about Broward Health Medical Center Heliport

Update a link
 
Copyright © AirNav, LLC. All rights reserved. Privacy Policy  Contact